createdAt,value
2022-08-19T00:02:27.060Z,100274.50
2022-08-19T00:04:57.205Z,100268.30
2022-08-19T00:07:27.314Z,100266.34
2022-08-19T00:09:57.508Z,100268.36
2022-08-19T00:12:27.734Z,100270.55
2022-08-19T00:14:57.942Z,100270.75
2022-08-19T00:17:28.218Z,100271.75
2022-08-19T00:19:58.393Z,100268.41
2022-08-19T00:22:29.469Z,100264.11
2022-08-19T00:24:59.826Z,100267.89
2022-08-19T00:27:32.488Z,100268.67
2022-08-19T00:30:04.500Z,100272.19
2022-08-19T00:32:35.428Z,100275.16
2022-08-19T00:35:06.171Z,100274.99
2022-08-19T00:37:37.055Z,100276.15
2022-08-19T00:40:09.339Z,100275.70
2022-08-19T00:42:39.667Z,100275.54
2022-08-19T00:45:13.228Z,100279.27
2022-08-19T00:47:43.352Z,100279.55
2022-08-19T00:50:15.428Z,100276.25
2022-08-19T00:52:46.573Z,100278.11
2022-08-19T00:55:20.084Z,100276.86
2022-08-19T00:57:56.565Z,100274.27
2022-08-19T01:00:28.048Z,100270.11
2022-08-19T01:02:59.033Z,100276.86
2022-08-19T01:05:30.264Z,100279.70
2022-08-19T01:08:01.393Z,100280.91
2022-08-19T01:10:36.507Z,100279.80
2022-08-19T01:13:07.112Z,100280.41
2022-08-19T01:15:38.332Z,100284.30
2022-08-19T01:18:10.184Z,100284.40
2022-08-19T01:20:40.847Z,100282.48
2022-08-19T01:23:12.251Z,100289.56
2022-08-19T01:25:44.747Z,100291.47
2022-08-19T01:28:20.015Z,100290.09
2022-08-19T01:31:07.944Z,100287.25
2022-08-19T01:33:38.503Z,100288.08
2022-08-19T01:36:10.934Z,100286.48
2022-08-19T01:38:44.229Z,100283.77
2022-08-19T01:41:15.015Z,100284.71
2022-08-19T01:44:10.006Z,100286.91
2022-08-19T01:46:36.193Z,100289.40
2022-08-19T01:49:07.495Z,100284.53
2022-08-19T01:51:38.533Z,100285.08
2022-08-19T01:54:10.721Z,100283.27
2022-08-19T01:56:41.222Z,100281.95
2022-08-19T01:59:12.654Z,100281.84
2022-08-19T02:01:43.245Z,100276.69
2022-08-19T02:04:13.681Z,100274.50
2022-08-19T02:06:44.066Z,100275.18
2022-08-19T02:09:14.306Z,100278.75
2022-08-19T02:11:44.619Z,100273.55
2022-08-19T02:14:14.866Z,100271.08
2022-08-19T02:16:45.076Z,100273.91
2022-08-19T02:19:15.229Z,100268.81
2022-08-19T02:21:45.669Z,100268.98
2022-08-19T02:24:15.846Z,100264.27
2022-08-19T02:26:46.068Z,100263.11
2022-08-19T02:29:16.210Z,100258.77
2022-08-19T02:31:46.575Z,100258.55
2022-08-19T02:34:16.844Z,100261.51
2022-08-19T02:36:51.838Z,100263.10
2022-08-19T02:39:22.645Z,100259.15
2022-08-19T02:41:53.373Z,100262.16
2022-08-19T02:44:30.930Z,100258.86
2022-08-19T02:47:02.087Z,100260.88
2022-08-19T02:49:34.719Z,100259.23
2022-08-19T02:52:05.262Z,100267.52
2022-08-19T02:54:35.485Z,100268.17
2022-08-19T02:57:05.907Z,100269.24
2022-08-19T02:59:36.217Z,100268.86
2022-08-19T03:02:06.612Z,100266.72
2022-08-19T03:04:36.807Z,100264.15
2022-08-19T03:07:07.197Z,100259.16
2022-08-19T03:09:41.583Z,100264.09
2022-08-19T03:12:12.024Z,100267.92
2022-08-19T03:14:42.415Z,100267.31
2022-08-19T03:17:13.768Z,100268.55
2022-08-19T03:19:44.479Z,100267.62
2022-08-19T03:22:15.231Z,100262.14
2022-08-19T03:24:45.510Z,100259.25
2022-08-19T03:27:16.136Z,100256.45
2022-08-19T03:29:46.993Z,100253.77
2022-08-19T03:32:32.317Z,100259.46
2022-08-19T03:35:03.950Z,100262.47
2022-08-19T03:37:34.591Z,100263.51
2022-08-19T03:40:05.837Z,100265.59
2022-08-19T03:42:49.051Z,100266.30
2022-08-19T03:45:20.729Z,100268.99
2022-08-19T03:47:51.267Z,100274.20
2022-08-19T03:50:21.863Z,100274.71
2022-08-19T03:52:53.046Z,100281.56
2022-08-19T03:55:23.424Z,100287.86
2022-08-19T03:57:58.657Z,100291.91
2022-08-19T04:00:29.623Z,100292.79
2022-08-19T04:03:00.768Z,100293.50
2022-08-19T04:05:31.684Z,100290.07
2022-08-19T04:08:02.010Z,100290.41
2022-08-19T04:10:32.543Z,100292.59
2022-08-19T04:13:02.731Z,100287.23
2022-08-19T04:15:37.126Z,100289.34
2022-08-19T04:18:08.778Z,100286.87
2022-08-19T04:20:43.057Z,100282.16
2022-08-19T04:23:13.418Z,100281.58
2022-08-19T04:25:45.006Z,100280.02
2022-08-19T04:28:15.036Z,100281.66
2022-08-19T04:30:48.763Z,100277.29
2022-08-19T04:33:19.806Z,100280.20
2022-08-19T04:36:01.220Z,100278.92
2022-08-19T04:38:31.309Z,100279.88
2022-08-19T04:41:19.182Z,100279.52
2022-08-19T04:43:49.915Z,100284.08
2022-08-19T04:46:39.670Z,100285.84
2022-08-19T04:49:13.121Z,100283.22
2022-08-19T04:51:45.895Z,100278.66
2022-08-19T04:54:33.753Z,100275.92
2022-08-19T04:57:08.035Z,100270.33
2022-08-19T04:59:39.157Z,100274.83
2022-08-19T05:02:10.216Z,100277.58
2022-08-19T05:04:40.825Z,100278.84
2022-08-19T05:07:13.204Z,100277.67
2022-08-19T05:09:58.125Z,100278.21
2022-08-19T05:12:29.897Z,100273.25
2022-08-19T05:15:00.654Z,100272.63
2022-08-19T05:17:36.058Z,100272.73
2022-08-19T05:20:26.748Z,100271.02
2022-08-19T05:22:57.226Z,100269.59
2022-08-19T05:25:27.774Z,100274.71
2022-08-19T05:27:57.927Z,100279.54
2022-08-19T05:30:46.067Z,100282.56
2022-08-19T05:33:16.856Z,100288.27
2022-08-19T05:35:47.271Z,100286.73
2022-08-19T05:38:17.350Z,100292.82
2022-08-19T05:40:48.101Z,100289.96
2022-08-19T05:43:18.512Z,100290.46
2022-08-19T05:45:48.850Z,100294.27
2022-08-19T05:48:21.939Z,100304.02
2022-08-19T05:50:52.335Z,100308.08
2022-08-19T05:53:22.952Z,100309.45
2022-08-19T05:55:53.240Z,100308.73
2022-08-19T05:58:23.587Z,100317.44
2022-08-19T06:00:58.479Z,100312.41
2022-08-19T06:03:29.187Z,100301.14
2022-08-19T06:06:00.893Z,100302.00
2022-08-19T06:08:34.329Z,100301.91
2022-08-19T06:13:48.177Z,100294.88
2022-08-19T06:16:22.887Z,100283.85
2022-08-19T06:18:52.629Z,100277.54
2022-08-19T06:21:22.796Z,100274.18
2022-08-19T06:23:52.318Z,100275.67
2022-08-19T06:26:21.538Z,100282.41
2022-08-19T06:28:50.693Z,100286.98
2022-08-19T06:31:21.286Z,100287.86
2022-08-19T06:33:50.357Z,100292.52
2022-08-19T06:36:25.261Z,100292.27
2022-08-19T06:38:56.075Z,100292.86
2022-08-19T06:41:24.562Z,100299.77
2022-08-19T06:43:54.171Z,100305.60
2022-08-19T06:46:24.860Z,100306.59
2022-08-19T06:48:54.736Z,100302.19
2022-08-19T06:51:24.517Z,100297.30
2022-08-19T06:53:54.922Z,100304.65
2022-08-19T06:56:31.402Z,100304.61
2022-08-19T06:59:00.491Z,100302.90
2022-08-19T07:01:29.314Z,100296.51
2022-08-19T07:03:57.655Z,100294.20
2022-08-19T07:06:43.587Z,100298.54
2022-08-19T07:09:14.899Z,100297.54
2022-08-19T07:11:48.637Z,100304.33
2022-08-19T07:14:19.980Z,100304.64
2022-08-19T07:16:50.650Z,100306.00
2022-08-19T07:19:20.332Z,100311.18
2022-08-19T07:21:50.511Z,100322.60
2022-08-19T07:24:18.998Z,100326.56
2022-08-19T07:26:51.805Z,100320.35
2022-08-19T07:29:23.445Z,100314.33
2022-08-19T07:31:53.327Z,100315.36
2022-08-19T07:34:23.543Z,100307.68
2022-08-19T07:36:52.953Z,100302.40
2022-08-19T07:39:24.125Z,100293.04
2022-08-19T07:41:52.891Z,100290.56
2022-08-19T07:44:22.586Z,100291.46
2022-08-19T07:46:54.180Z,100294.33
2022-08-19T07:49:22.886Z,100297.58
2022-08-19T07:51:53.538Z,100300.02
2022-08-19T07:54:23.662Z,100293.83
2022-08-19T07:56:53.089Z,100295.73
2022-08-19T07:59:22.445Z,100300.34
2022-08-19T08:01:51.769Z,100300.37
2022-08-19T08:04:38.785Z,100297.61
2022-08-19T08:07:31.596Z,100291.25
2022-08-19T08:10:03.185Z,100285.80
2022-08-19T08:12:41.615Z,100281.73
2022-08-19T08:15:16.686Z,100284.06
2022-08-19T08:17:49.513Z,100284.00
2022-08-19T08:20:20.913Z,100283.72
2022-08-19T08:23:08.173Z,100284.77
2022-08-19T08:25:37.749Z,100286.05
2022-08-19T08:28:09.694Z,100287.01
2022-08-19T08:30:42.103Z,100287.12
2022-08-19T08:35:47.759Z,100297.98
2022-08-19T08:38:18.546Z,100299.74
2022-08-19T08:40:50.258Z,100296.02
2022-08-19T08:43:32.180Z,100298.08
2022-08-19T08:46:04.942Z,100299.69
2022-08-19T08:48:38.925Z,100298.41
2022-08-19T08:51:12.922Z,100291.08
2022-08-19T08:53:42.152Z,100292.58
2022-08-19T08:56:13.463Z,100290.17
2022-08-19T08:58:54.365Z,100293.82
2022-08-19T09:01:22.960Z,100297.48
2022-08-19T09:03:53.272Z,100308.95
2022-08-19T09:06:29.620Z,100313.03
2022-08-19T09:09:13.906Z,100318.51
2022-08-19T09:11:51.820Z,100310.48
2022-08-19T09:14:50.257Z,100313.00
2022-08-19T09:17:21.346Z,100311.45
2022-08-19T09:19:53.666Z,100315.56
2022-08-19T09:22:25.439Z,100316.59
2022-08-19T09:24:55.478Z,100309.34
2022-08-19T09:27:42.476Z,100305.65
2022-08-19T09:30:15.984Z,100310.08
2022-08-19T09:32:45.718Z,100308.75
2022-08-19T09:35:15.845Z,100312.77
2022-08-19T09:37:44.987Z,100312.39
2022-08-19T09:40:14.159Z,100314.05
2022-08-19T09:42:49.935Z,100314.51
2022-08-19T09:45:22.137Z,100310.80
2022-08-19T09:47:52.311Z,100315.16
2022-08-19T09:50:26.095Z,100316.46
2022-08-19T09:52:57.322Z,100323.41
2022-08-19T09:55:31.670Z,100319.44
2022-08-19T09:58:02.242Z,100324.19
2022-08-19T10:00:34.987Z,100316.45
2022-08-19T10:03:03.528Z,100321.65
2022-08-19T10:05:50.230Z,100315.52
2022-08-19T10:08:20.988Z,100312.23
2022-08-19T10:10:49.534Z,100311.60
2022-08-19T10:13:26.186Z,100308.94
2022-08-19T10:15:56.229Z,100303.23
2022-08-19T10:18:26.350Z,100296.54
2022-08-19T10:21:08.213Z,100293.33
2022-08-19T10:23:38.531Z,100293.05
2022-08-19T10:26:07.613Z,100292.53
2022-08-19T10:28:37.757Z,100289.77
2022-08-19T10:31:08.723Z,100288.54
2022-08-19T10:33:53.618Z,100282.95
2022-08-19T10:36:24.589Z,100286.23
2022-08-19T10:38:58.458Z,100286.94
2022-08-19T10:41:29.413Z,100285.95
2022-08-19T10:44:04.416Z,100279.97
2022-08-19T10:46:35.153Z,100276.80
2022-08-19T10:49:06.971Z,100278.86
2022-08-19T10:51:54.642Z,100286.69
2022-08-19T10:54:33.312Z,100290.39
2022-08-19T10:57:03.039Z,100287.92
2022-08-19T10:59:35.861Z,100284.87
2022-08-19T11:02:10.258Z,100285.89
2022-08-19T11:04:39.032Z,100283.74
2022-08-19T11:07:08.760Z,100279.64
2022-08-19T11:09:40.331Z,100274.80
2022-08-19T11:12:09.983Z,100277.22
2022-08-19T11:14:41.171Z,100267.09
2022-08-19T11:17:11.362Z,100268.86
2022-08-19T11:19:39.818Z,100260.08
2022-08-19T11:22:10.514Z,100255.49
2022-08-19T11:24:43.129Z,100251.45
2022-08-19T11:27:11.895Z,100248.91
2022-08-19T11:29:40.501Z,100245.98
2022-08-19T11:32:10.806Z,100249.89
2022-08-19T11:34:40.062Z,100250.52
2022-08-19T11:37:09.336Z,100248.81
2022-08-19T11:39:38.415Z,100252.91
2022-08-19T11:42:22.686Z,100246.89
2022-08-19T11:44:51.179Z,100241.95
2022-08-19T11:47:19.709Z,100240.23
2022-08-19T11:49:50.492Z,100241.80
2022-08-19T11:52:18.900Z,100239.81
2022-08-19T11:54:47.485Z,100239.96
2022-08-19T11:57:17.566Z,100234.55
2022-08-19T11:59:50.952Z,100225.89
2022-08-19T12:02:19.951Z,100217.55
2022-08-19T12:04:48.268Z,100209.48
2022-08-19T12:07:16.711Z,100207.38
2022-08-19T12:09:45.021Z,100199.42
2022-08-19T12:12:14.558Z,100201.64
2022-08-19T12:14:42.967Z,100196.77
2022-08-19T12:17:12.004Z,100196.05
2022-08-19T12:19:40.385Z,100200.38
2022-08-19T12:22:09.530Z,100190.88
2022-08-19T12:24:38.229Z,100193.29
2022-08-19T12:27:06.442Z,100191.02
2022-08-19T12:29:42.131Z,100193.45
2022-08-19T12:32:12.143Z,100191.63
2022-08-19T12:34:41.776Z,100190.23
2022-08-19T12:37:11.738Z,100184.73
2022-08-19T12:39:42.165Z,100179.91
2022-08-19T12:42:11.204Z,100174.52
2022-08-19T12:44:41.607Z,100172.35
2022-08-19T12:47:11.791Z,100171.87
2022-08-19T12:49:53.122Z,100171.48
2022-08-19T12:52:24.096Z,100160.45
2022-08-19T12:54:54.319Z,100161.80
2022-08-19T12:57:31.732Z,100162.27
2022-08-19T13:00:01.949Z,100159.83
2022-08-19T13:02:38.887Z,100159.55
2022-08-19T13:05:11.701Z,100161.88
2022-08-19T13:07:41.482Z,100160.94
2022-08-19T13:10:18.439Z,100156.31
2022-08-19T13:12:48.918Z,100157.89
2022-08-19T13:15:23.717Z,100155.73
2022-08-19T13:17:56.009Z,100156.39
2022-08-19T13:20:25.225Z,100157.19
2022-08-19T13:22:53.633Z,100157.73
2022-08-19T13:25:22.515Z,100158.82
2022-08-19T13:27:52.396Z,100156.23
2022-08-19T13:30:40.566Z,100157.52
2022-08-19T13:33:16.130Z,100154.05
2022-08-19T13:35:47.588Z,100153.11
2022-08-19T13:38:16.961Z,100152.89
2022-08-19T13:40:47.539Z,100154.52
2022-08-19T13:43:22.772Z,100150.73
2022-08-19T13:45:55.721Z,100147.42
2022-08-19T13:48:25.421Z,100155.85
2022-08-19T13:50:54.615Z,100154.64
2022-08-19T13:53:23.513Z,100151.52
2022-08-19T13:55:53.973Z,100151.53
2022-08-19T13:58:23.089Z,100151.71
2022-08-19T14:00:51.443Z,100153.87
2022-08-19T14:03:20.130Z,100154.56
2022-08-19T14:05:48.581Z,100154.88
2022-08-19T14:08:16.889Z,100162.23
2022-08-19T14:10:45.879Z,100164.36
2022-08-19T14:13:17.670Z,100166.06
2022-08-19T14:15:47.775Z,100161.85
2022-08-19T14:18:16.234Z,100162.02
2022-08-19T14:20:44.641Z,100163.20
2022-08-19T14:23:14.199Z,100168.98
2022-08-19T14:25:42.502Z,100166.23
2022-08-19T14:28:10.742Z,100166.60
2022-08-19T14:30:40.081Z,100166.77
2022-08-19T14:33:09.243Z,100162.20
2022-08-19T14:35:37.964Z,100165.88
2022-08-19T14:38:07.675Z,100162.27
2022-08-19T14:40:35.917Z,100155.59
2022-08-19T14:43:05.592Z,100160.20
2022-08-19T14:45:36.562Z,100160.63
2022-08-19T14:48:05.488Z,100160.38
2022-08-19T14:50:34.152Z,100160.67
2022-08-19T14:53:07.964Z,100164.98
2022-08-19T14:55:43.437Z,100170.45
2022-08-19T14:58:29.639Z,100169.18
2022-08-19T15:01:00.370Z,100170.44
2022-08-19T15:03:29.977Z,100169.26
2022-08-19T15:05:58.280Z,100170.27
2022-08-19T15:08:27.508Z,100170.77
2022-08-19T15:10:56.687Z,100168.33
2022-08-19T15:13:25.695Z,100167.61
2022-08-19T15:15:54.385Z,100166.92
2022-08-19T15:18:22.922Z,100165.13
2022-08-19T15:20:51.594Z,100170.34
2022-08-19T15:23:21.238Z,100170.06
2022-08-19T15:25:52.462Z,100169.00
2022-08-19T15:28:20.673Z,100164.86
2022-08-19T15:30:50.445Z,100164.08
2022-08-19T15:33:20.185Z,100160.06
2022-08-19T15:35:51.091Z,100153.98
2022-08-19T15:38:21.745Z,100147.89
2022-08-19T15:40:50.723Z,100144.46
2022-08-19T15:43:21.162Z,100145.11
2022-08-19T15:45:50.718Z,100142.54
2022-08-19T15:48:19.252Z,100141.43
2022-08-19T15:50:47.646Z,100140.04
2022-08-19T15:53:16.943Z,100138.70
2022-08-19T15:55:47.899Z,100144.09
2022-08-19T15:58:35.124Z,100145.71
2022-08-19T16:01:27.016Z,100149.79
2022-08-19T16:04:16.336Z,100148.79
2022-08-19T16:06:46.777Z,100149.25
2022-08-19T16:09:15.821Z,100149.05
2022-08-19T16:11:46.302Z,100150.34
2022-08-19T16:14:15.941Z,100153.27
2022-08-19T16:16:46.169Z,100151.25
2022-08-19T16:19:16.793Z,100146.84
2022-08-19T16:21:46.874Z,100141.15
2022-08-19T16:24:17.231Z,100138.13
2022-08-19T16:26:46.227Z,100136.34
2022-08-19T16:29:33.248Z,100127.80
2022-08-19T16:32:02.778Z,100129.15
2022-08-19T16:34:31.698Z,100128.77
2022-08-19T16:37:02.030Z,100127.16
2022-08-19T16:39:30.547Z,100133.36
2022-08-19T16:41:59.533Z,100134.08
2022-08-19T16:44:29.713Z,100130.23
2022-08-19T16:46:59.681Z,100126.98
2022-08-19T16:49:53.387Z,100128.65
2022-08-19T16:52:19.408Z,100131.16
2022-08-19T16:54:48.193Z,100128.25
2022-08-19T16:57:16.533Z,100129.80
2022-08-19T16:59:49.250Z,100135.87
2022-08-19T17:02:19.281Z,100133.05
2022-08-19T17:04:58.066Z,100134.23
2022-08-19T17:07:27.872Z,100135.02
2022-08-19T17:09:56.389Z,100138.53
2022-08-19T17:12:31.580Z,100141.02
2022-08-19T17:15:02.167Z,100142.20
2022-08-19T17:17:31.089Z,100141.41
2022-08-19T17:20:00.124Z,100133.71
2022-08-19T17:22:28.548Z,100136.88
2022-08-19T17:24:58.124Z,100137.73
2022-08-19T17:27:32.485Z,100139.59
2022-08-19T17:30:02.112Z,100139.41
2022-08-19T17:32:33.744Z,100141.31
2022-08-19T17:35:03.965Z,100146.71
2022-08-19T17:37:33.598Z,100148.70
2022-08-19T17:40:03.641Z,100152.82
2022-08-19T17:42:32.179Z,100159.45
2022-08-19T17:45:00.524Z,100166.50
2022-08-19T17:47:29.256Z,100170.35
2022-08-19T17:49:58.210Z,100171.04
2022-08-19T17:52:27.062Z,100179.17
2022-08-19T17:54:55.898Z,100181.01
2022-08-19T17:57:24.311Z,100182.30
2022-08-19T17:59:52.852Z,100189.05
2022-08-19T18:02:21.930Z,100192.08
2022-08-19T18:04:51.172Z,100195.95
2022-08-19T18:07:21.052Z,100200.25
2022-08-19T18:09:52.650Z,100204.16
2022-08-19T18:12:24.386Z,100210.84
2022-08-19T18:14:52.921Z,100217.21
2022-08-19T18:17:22.775Z,100219.55
2022-08-19T18:19:51.270Z,100226.60
2022-08-19T18:22:26.092Z,100228.47
2022-08-19T18:24:54.906Z,100227.66
2022-08-19T18:27:23.654Z,100225.92
2022-08-19T18:29:54.010Z,100231.05
2022-08-19T18:32:25.170Z,100231.41
2022-08-19T18:34:54.361Z,100233.90
2022-08-19T18:37:25.400Z,100228.98
2022-08-19T18:40:12.039Z,100228.60
2022-08-19T18:43:01.529Z,100221.13
2022-08-19T18:45:48.346Z,100226.71
2022-08-19T18:48:46.160Z,100224.64
2022-08-19T18:51:15.671Z,100220.09
2022-08-19T18:53:46.501Z,100210.22
2022-08-19T18:56:17.322Z,100204.87
2022-08-19T18:58:45.908Z,100202.81
2022-08-19T19:01:17.254Z,100197.33
2022-08-19T19:03:48.676Z,100199.79
2022-08-19T19:06:21.344Z,100197.71
2022-08-19T19:08:50.904Z,100194.82
2022-08-19T19:11:24.336Z,100188.34
2022-08-19T19:13:51.759Z,100188.50
2022-08-19T19:16:24.443Z,100187.21
2022-08-19T19:18:53.135Z,100187.33
2022-08-19T19:21:24.063Z,100189.25
2022-08-19T19:23:53.507Z,100198.45
2022-08-19T19:26:22.744Z,100203.39
2022-08-19T19:28:51.135Z,100211.11
2022-08-19T19:31:22.599Z,100212.58
2022-08-19T19:33:51.287Z,100217.48
2022-08-19T19:36:19.630Z,100217.02
2022-08-19T19:38:49.025Z,100216.55
2022-08-19T19:41:22.813Z,100219.42
2022-08-19T19:44:09.862Z,100218.89
2022-08-19T19:46:42.393Z,100219.40
2022-08-19T19:49:11.019Z,100217.48
2022-08-19T19:51:39.845Z,100219.67
2022-08-19T19:54:13.102Z,100224.05
2022-08-19T19:56:44.825Z,100230.81
2022-08-19T19:59:13.178Z,100228.29
2022-08-19T20:01:45.657Z,100225.33
2022-08-19T20:04:14.335Z,100224.35
2022-08-19T20:06:43.510Z,100230.08
2022-08-19T20:09:16.295Z,100234.02
2022-08-19T20:11:49.345Z,100233.84
2022-08-19T20:14:24.279Z,100238.67
2022-08-19T20:16:54.295Z,100240.11
2022-08-19T20:19:25.923Z,100242.77
2022-08-19T20:21:56.738Z,100236.70
2022-08-19T20:24:28.154Z,100235.45
2022-08-19T20:26:56.615Z,100237.95
2022-08-19T20:29:38.969Z,100239.89
2022-08-19T20:32:10.598Z,100236.87
2022-08-19T20:34:39.902Z,100244.42
2022-08-19T20:37:08.605Z,100250.08
2022-08-19T20:39:37.353Z,100263.58
2022-08-19T20:42:06.518Z,100273.00
2022-08-19T20:44:35.143Z,100275.77
2022-08-19T20:47:04.273Z,100272.41
2022-08-19T20:49:32.799Z,100275.56
2022-08-19T20:52:01.815Z,100272.45
2022-08-19T20:54:31.501Z,100279.11
2022-08-19T20:57:02.197Z,100279.80
2022-08-19T20:59:30.609Z,100275.83
2022-08-19T21:01:59.089Z,100265.21
2022-08-19T21:04:27.448Z,100262.55
2022-08-19T21:06:55.971Z,100255.97
2022-08-19T21:09:24.549Z,100255.88
2022-08-19T21:11:53.125Z,100257.62
2022-08-19T21:14:22.221Z,100263.33
2022-08-19T21:16:50.530Z,100263.52
2022-08-19T21:19:23.693Z,100264.95
2022-08-19T21:21:53.129Z,100261.84
2022-08-19T21:24:21.474Z,100261.49
2022-08-19T21:26:54.944Z,100264.42
2022-08-19T21:29:23.191Z,100260.84
2022-08-19T21:31:51.490Z,100260.37
2022-08-19T21:34:19.992Z,100253.48
2022-08-19T21:36:48.563Z,100255.81
2022-08-19T21:39:16.873Z,100255.21
2022-08-19T21:41:45.592Z,100256.89
2022-08-19T21:44:16.099Z,100257.23
2022-08-19T21:46:44.855Z,100257.53
2022-08-19T21:49:19.995Z,100251.63
2022-08-19T21:51:48.268Z,100254.45
2022-08-19T21:54:16.600Z,100254.15
2022-08-19T21:56:45.014Z,100255.42
2022-08-19T21:59:13.307Z,100248.05
2022-08-19T22:01:46.011Z,100236.80
2022-08-19T22:04:17.389Z,100230.85
2022-08-19T22:06:46.294Z,100229.23
2022-08-19T22:09:14.647Z,100222.81
2022-08-19T22:11:44.102Z,100221.67
2022-08-19T22:14:12.399Z,100221.32
2022-08-19T22:16:41.504Z,100216.50
2022-08-19T22:19:10.132Z,100220.20
2022-08-19T22:21:40.300Z,100217.86
2022-08-19T22:24:09.914Z,100215.63
2022-08-19T22:26:38.622Z,100217.77
2022-08-19T22:29:06.952Z,100220.81
2022-08-19T22:31:36.926Z,100223.20
2022-08-19T22:34:06.069Z,100231.15
2022-08-19T22:36:35.118Z,100237.75
2022-08-19T22:39:04.213Z,100247.41
2022-08-19T22:41:33.671Z,100247.54
2022-08-19T22:44:03.251Z,100247.17
2022-08-19T22:46:33.853Z,100248.72
2022-08-19T22:49:02.188Z,100252.41
2022-08-19T22:51:49.106Z,100257.41
2022-08-19T22:54:19.656Z,100261.48
2022-08-19T22:56:51.405Z,100264.92
2022-08-19T22:59:19.821Z,100266.86
2022-08-19T23:01:48.175Z,100264.27
2022-08-19T23:04:17.079Z,100266.92
2022-08-19T23:06:45.407Z,100266.03
2022-08-19T23:09:16.718Z,100266.70
2022-08-19T23:11:46.627Z,100268.17
2022-08-19T23:14:16.314Z,100272.48
2022-08-19T23:16:50.427Z,100274.24
2022-08-19T23:19:20.654Z,100277.66
2022-08-19T23:21:49.682Z,100284.04
2022-08-19T23:24:17.916Z,100280.45
2022-08-19T23:27:01.029Z,100277.16
2022-08-19T23:29:49.986Z,100275.18
2022-08-19T23:32:18.886Z,100277.61
2022-08-19T23:34:47.811Z,100274.89
2022-08-19T23:37:16.242Z,100276.91
2022-08-19T23:39:45.255Z,100275.60
2022-08-19T23:42:14.076Z,100276.39
2022-08-19T23:44:51.485Z,100279.96
2022-08-19T23:47:21.042Z,100284.25
2022-08-19T23:49:50.094Z,100280.02
2022-08-19T23:52:18.476Z,100279.98
2022-08-19T23:54:47.200Z,100282.64
2022-08-19T23:57:15.482Z,100289.70
2022-08-19T23:59:44.819Z,100304.74
